createdAt,value
2023-06-19T00:03:07.083Z,7.90
2023-06-19T00:08:09.074Z,4.82
2023-06-19T00:13:11.130Z,3.95
2023-06-19T00:18:13.427Z,6.78
2023-06-19T00:23:18.081Z,7.55
2023-06-19T00:28:22.524Z,6.82
2023-06-19T00:33:24.587Z,5.22
2023-06-19T00:38:28.443Z,14.73
2023-06-19T00:43:30.560Z,3.53
2023-06-19T00:48:35.296Z,4.28
2023-06-19T00:53:38.012Z,4.95
2023-06-19T00:58:40.258Z,3.60
2023-06-19T01:03:43.012Z,4.00
2023-06-19T01:08:59.982Z,3.38
2023-06-19T01:14:09.788Z,4.45
2023-06-19T01:19:16.907Z,4.57
2023-06-19T01:24:19.067Z,6.40
2023-06-19T01:29:21.441Z,3.00
2023-06-19T01:34:25.236Z,4.13
2023-06-19T01:39:29.585Z,3.47
2023-06-19T01:44:32.024Z,4.85
2023-06-19T01:49:34.296Z,4.78
2023-06-19T01:54:39.268Z,4.97
2023-06-19T01:59:41.224Z,5.25
2023-06-19T02:04:43.437Z,4.13
2023-06-19T02:09:45.634Z,5.93
2023-06-19T02:14:47.795Z,7.05
2023-06-19T02:19:49.746Z,4.70
2023-06-19T02:24:53.331Z,4.95
2023-06-19T02:29:55.390Z,6.25
2023-06-19T02:34:58.358Z,4.90
2023-06-19T02:40:01.050Z,4.43
2023-06-19T02:45:05.820Z,5.75
2023-06-19T02:50:11.088Z,4.38
2023-06-19T02:55:13.167Z,9.80
2023-06-19T03:00:15.609Z,6.28
2023-06-19T03:05:18.751Z,5.38
2023-06-19T03:10:21.304Z,6.78
2023-06-19T03:15:23.715Z,8.77
2023-06-19T03:20:27.333Z,6.85
2023-06-19T03:25:35.931Z,8.70
2023-06-19T03:30:38.895Z,8.10
2023-06-19T03:35:41.913Z,9.30
2023-06-19T03:40:49.635Z,10.32
2023-06-19T03:45:52.112Z,8.90
2023-06-19T03:50:54.667Z,6.15
2023-06-19T03:55:57.366Z,7.95
2023-06-19T04:00:59.619Z,13.73
2023-06-19T04:06:01.649Z,6.30
2023-06-19T04:11:03.681Z,7.65
2023-06-19T04:16:05.746Z,5.97
2023-06-19T04:21:08.368Z,6.00
2023-06-19T04:26:10.307Z,10.40
2023-06-19T04:31:12.325Z,9.05
2023-06-19T04:36:15.475Z,5.60
2023-06-19T04:41:17.555Z,6.15
2023-06-19T04:46:21.560Z,6.82
2023-06-19T04:51:24.207Z,6.75
2023-06-19T04:56:26.260Z,6.97
2023-06-19T05:01:31.609Z,6.57
2023-06-19T05:06:33.523Z,8.43
2023-06-19T05:11:35.500Z,8.00
2023-06-19T05:16:37.541Z,10.55
2023-06-19T05:21:39.815Z,9.98
2023-06-19T05:26:41.830Z,8.57
2023-06-19T05:31:43.963Z,11.98
2023-06-19T05:36:48.152Z,9.23
2023-06-19T05:41:50.089Z,10.98
2023-06-19T05:46:52.115Z,9.80
2023-06-19T05:51:54.409Z,13.00
2023-06-19T05:56:56.479Z,12.82
2023-06-19T06:01:58.722Z,14.20
2023-06-19T06:07:00.771Z,13.32
2023-06-19T06:12:02.999Z,13.20
2023-06-19T06:17:06.474Z,12.05
2023-06-19T06:22:08.596Z,16.77
2023-06-19T06:27:10.715Z,12.50
2023-06-19T06:32:12.803Z,15.73
2023-06-19T06:37:17.190Z,16.20
2023-06-19T06:42:19.772Z,16.30
2023-06-19T06:47:21.783Z,16.60
2023-06-19T06:52:25.092Z,13.95
2023-06-19T06:57:27.031Z,13.50
2023-06-19T07:02:29.190Z,12.63
2023-06-19T07:07:31.158Z,12.70
2023-06-19T07:12:33.280Z,15.65
2023-06-19T07:17:35.405Z,14.05
2023-06-19T07:22:38.160Z,12.60
2023-06-19T07:27:43.146Z,15.75
2023-06-19T07:32:45.299Z,15.68
2023-06-19T07:37:47.220Z,14.02
2023-06-19T07:42:49.510Z,11.52
2023-06-19T07:47:58.680Z,12.63
2023-06-19T07:53:00.764Z,14.30
2023-06-19T07:58:03.245Z,13.65
2023-06-19T08:03:06.384Z,13.48
2023-06-19T08:08:08.455Z,12.35
2023-06-19T08:13:12.495Z,11.65
2023-06-19T08:18:14.675Z,12.10
2023-06-19T08:23:16.679Z,11.38
2023-06-19T08:28:18.700Z,9.52
2023-06-19T08:33:20.640Z,11.27
2023-06-19T08:38:23.040Z,14.68
2023-06-19T08:43:25.258Z,11.77
2023-06-19T08:48:28.435Z,9.32
2023-06-19T08:53:30.501Z,8.13
2023-06-19T08:58:34.004Z,7.68
2023-06-19T09:03:36.228Z,9.52
2023-06-19T09:08:38.709Z,8.48
2023-06-19T09:13:40.676Z,10.60
2023-06-19T09:18:45.929Z,7.50
2023-06-19T09:23:52.685Z,9.13
2023-06-19T09:29:15.500Z,10.43
2023-06-19T09:34:18.698Z,11.73
2023-06-19T09:39:22.375Z,6.50
2023-06-19T09:44:25.804Z,12.10
2023-06-19T09:49:33.056Z,10.60
2023-06-19T09:54:36.239Z,10.25
2023-06-19T09:59:41.949Z,8.57
2023-06-19T10:04:50.438Z,8.52
2023-06-19T10:09:57.894Z,9.00
2023-06-19T10:15:19.512Z,11.45
2023-06-19T10:20:34.494Z,9.85
2023-06-19T10:25:39.359Z,8.63
2023-06-19T10:30:41.309Z,10.23
2023-06-19T10:35:43.254Z,11.73
2023-06-19T10:40:46.639Z,7.22
2023-06-19T10:45:48.574Z,7.18
2023-06-19T10:50:51.491Z,10.75
2023-06-19T10:56:00.507Z,10.02
2023-06-19T11:01:02.556Z,8.55
2023-06-19T11:06:04.963Z,7.38
2023-06-19T11:11:07.017Z,8.27
2023-06-19T11:16:08.948Z,8.48
2023-06-19T11:21:11.017Z,8.73
2023-06-19T11:26:13.764Z,8.73
2023-06-19T11:31:16.797Z,8.88
2023-06-19T11:36:18.841Z,8.98
2023-06-19T11:41:28.726Z,6.90
2023-06-19T11:46:32.304Z,7.00
2023-06-19T11:51:34.701Z,9.85
2023-06-19T11:56:37.887Z,9.00
2023-06-19T12:01:40.071Z,7.10
2023-06-19T12:06:42.346Z,8.98
2023-06-19T12:11:44.545Z,8.30
2023-06-19T12:16:48.226Z,7.47
2023-06-19T12:21:50.123Z,8.40
2023-06-19T12:26:52.075Z,8.40
2023-06-19T12:31:59.424Z,7.65
2023-06-19T12:37:01.542Z,7.97
2023-06-19T12:42:03.711Z,9.43
2023-06-19T12:47:06.357Z,7.18
2023-06-19T12:52:08.800Z,6.78
2023-06-19T12:57:10.808Z,6.55
2023-06-19T13:02:15.185Z,7.57
2023-06-19T13:07:17.542Z,9.52
2023-06-19T13:12:19.471Z,6.00
2023-06-19T13:17:21.669Z,6.05
2023-06-19T13:22:25.064Z,7.55
2023-06-19T13:27:28.467Z,5.72
2023-06-19T13:32:30.540Z,6.32
2023-06-19T13:37:35.085Z,6.57
2023-06-19T13:42:37.443Z,5.47
2023-06-19T13:47:39.690Z,6.38
2023-06-19T13:52:42.543Z,9.18
2023-06-19T13:57:44.718Z,6.60
2023-06-19T14:02:47.093Z,5.10
2023-06-19T14:07:49.183Z,5.40
2023-06-19T14:12:51.168Z,6.90
2023-06-19T14:17:53.387Z,5.45
2023-06-19T14:22:55.575Z,7.25
2023-06-19T14:27:57.380Z,4.90
2023-06-19T14:32:59.633Z,6.30
2023-06-19T14:38:01.772Z,4.68
2023-06-19T14:43:03.828Z,11.43
2023-06-19T14:48:06.290Z,7.75
2023-06-19T14:53:08.530Z,4.47
2023-06-19T14:58:10.505Z,5.13
2023-06-19T15:03:13.208Z,7.70
2023-06-19T15:08:15.439Z,4.50
2023-06-19T15:13:18.161Z,4.22
2023-06-19T15:18:20.356Z,4.85
2023-06-19T15:23:22.538Z,6.75
2023-06-19T15:28:24.581Z,6.25
2023-06-19T15:33:26.776Z,5.07
2023-06-19T15:38:28.998Z,4.63
2023-06-19T15:43:31.925Z,4.15
2023-06-19T15:48:34.181Z,5.28
2023-06-19T15:53:40.380Z,4.78
2023-06-19T15:58:42.720Z,4.05
2023-06-19T16:03:45.005Z,4.43
2023-06-19T16:08:46.954Z,7.28
2023-06-19T16:13:48.945Z,5.32
2023-06-19T16:18:51.027Z,3.97
2023-06-19T16:23:53.168Z,5.20
2023-06-19T16:28:55.117Z,4.88
2023-06-19T16:33:57.752Z,5.93
2023-06-19T16:39:00.409Z,5.93
2023-06-19T16:44:02.497Z,6.18
2023-06-19T16:49:05.151Z,6.93
2023-06-19T16:54:07.102Z,6.93
2023-06-19T16:59:11.034Z,4.70
2023-06-19T17:04:13.281Z,7.22
2023-06-19T17:09:15.237Z,7.25
2023-06-19T17:14:17.097Z,7.45
2023-06-19T17:19:18.928Z,6.00
2023-06-19T17:24:21.659Z,6.32
2023-06-19T17:29:26.049Z,6.80
2023-06-19T17:34:27.961Z,6.00
2023-06-19T17:39:30.263Z,5.00
2023-06-19T17:44:32.396Z,6.55
2023-06-19T17:49:34.356Z,5.18
2023-06-19T17:54:36.501Z,7.30
2023-06-19T17:59:38.628Z,6.30
2023-06-19T18:04:40.878Z,4.80
2023-06-19T18:09:47.577Z,6.07
2023-06-19T18:14:49.698Z,5.88
2023-06-19T18:19:51.855Z,5.22
2023-06-19T18:24:54.180Z,6.63
2023-06-19T18:29:56.511Z,7.50
2023-06-19T18:34:59.288Z,9.63
2023-06-19T18:40:01.284Z,6.10
2023-06-19T18:45:03.714Z,6.32
2023-06-19T18:50:06.993Z,9.38
2023-06-19T18:55:09.109Z,5.40
2023-06-19T19:00:11.882Z,5.47
2023-06-19T19:05:13.979Z,10.50
2023-06-19T19:10:16.369Z,6.53
2023-06-19T19:15:18.571Z,5.22
2023-06-19T19:20:20.856Z,4.70
2023-06-19T19:25:23.074Z,6.88
2023-06-19T19:30:25.501Z,8.95
2023-06-19T19:35:27.757Z,6.25
2023-06-19T19:40:29.774Z,6.25
2023-06-19T19:45:31.682Z,6.15
2023-06-19T19:50:34.225Z,6.18
2023-06-19T19:55:36.289Z,5.65
2023-06-19T20:00:38.488Z,5.07
2023-06-19T20:05:40.467Z,7.78
2023-06-19T20:10:44.424Z,6.70
2023-06-19T20:15:48.047Z,8.00
2023-06-19T20:20:50.177Z,6.43
2023-06-19T20:25:52.711Z,7.72
2023-06-19T20:30:55.930Z,5.88
2023-06-19T20:36:01.931Z,6.70
2023-06-19T20:41:04.343Z,6.82
2023-06-19T20:46:08.629Z,9.05
2023-06-19T20:51:11.325Z,7.80
2023-06-19T20:56:13.329Z,7.25
2023-06-19T21:01:15.636Z,6.05
2023-06-19T21:06:21.172Z,7.03
2023-06-19T21:11:23.369Z,6.80
2023-06-19T21:16:25.722Z,10.88
2023-06-19T21:21:27.968Z,8.35
2023-06-19T21:26:29.901Z,9.00
2023-06-19T21:31:32.087Z,6.80
2023-06-19T21:36:34.032Z,8.25
2023-06-19T21:41:37.345Z,12.75
2023-06-19T21:46:39.653Z,7.97
2023-06-19T21:51:42.566Z,10.75
2023-06-19T21:56:44.696Z,7.68
2023-06-19T22:01:46.969Z,8.95
2023-06-19T22:06:48.913Z,7.32
2023-06-19T22:11:50.890Z,8.55
2023-06-19T22:16:52.946Z,13.73
2023-06-19T22:21:55.023Z,9.25
2023-06-19T22:26:57.194Z,12.27
2023-06-19T22:31:59.427Z,6.13
2023-06-19T22:37:01.444Z,5.75
2023-06-19T22:42:03.724Z,6.72
2023-06-19T22:47:06.082Z,6.78
2023-06-19T22:52:09.806Z,7.03
2023-06-19T22:57:11.673Z,7.35
2023-06-19T23:02:13.800Z,7.53
2023-06-19T23:07:16.080Z,7.18
2023-06-19T23:12:21.304Z,5.65
2023-06-19T23:17:23.993Z,6.63
2023-06-19T23:22:26.829Z,5.53
2023-06-19T23:27:29.046Z,6.00
2023-06-19T23:32:31.023Z,6.90
2023-06-19T23:37:33.101Z,9.57
2023-06-19T23:42:35.061Z,6.85
2023-06-19T23:47:36.911Z,6.68
2023-06-19T23:52:44.154Z,8.80
2023-06-19T23:57:47.073Z,7.15
